Time;durP1;ratioP1;P1;durP2;ratioP2;P2;SDS_P1;SDS_P2;PMS_P1;PMS_P2;Temp;Humidity;BMP_temperature;BMP_pressure;BME280_temperature;BME280_humidity;BME280_pressure;Samples;Min_cycle;Max_cycle;Signal;HPM_P1;HPM_P2
2022/12/27 00:00:34;;;;;;;;;;;;;;;16.31;46.92;102023.00;7252024;19;153588;-58
2022/12/27 00:03:01;;;;;;;;;;;;;;;16.30;46.78;102021.31;7251130;19;153134;-58
2022/12/27 00:05:27;;;;;;;;;;;;;;;16.29;46.85;102020.47;7251424;19;153858;-58
2022/12/27 00:07:54;;;;;;;;;;;;;;;16.28;46.67;102038.31;7259844;19;154117;-58
2022/12/27 00:10:21;;;;;;;;;;;;;;;16.27;46.72;102039.38;7249184;19;157823;-58
2022/12/27 00:12:48;;;;;;;;;;;;;;;16.27;46.40;102036.59;7253467;19;153718;-58
2022/12/27 00:15:14;;;;;;;;;;;;;;;16.27;46.86;102030.19;7252611;19;153864;-58
2022/12/27 00:17:41;;;;;;;;;;;;;;;16.25;46.65;102036.03;7251995;19;154269;-58
2022/12/27 00:20:08;;;;;;;;;;;;;;;16.24;46.74;102042.69;7250729;19;153650;-58
2022/12/27 00:22:37;;;;;;;;;;;;;;;16.23;46.86;102041.00;7253176;19;153766;-58
2022/12/27 00:25:04;;;;;;;;;;;;;;;16.23;46.90;102045.72;7250321;19;154171;-58
2022/12/27 00:27:30;;;;;;;;;;;;;;;16.22;46.87;102046.81;7253560;19;154174;-58
2022/12/27 00:29:57;;;;;;;;;;;;;;;16.21;46.64;102054.38;7258975;19;155238;-58
2022/12/27 00:32:24;;;;;;;;;;;;;;;16.20;46.92;102047.09;7251826;19;152516;-58
2022/12/27 00:34:50;;;;;;;;;;;;;;;16.19;46.84;102058.47;7250719;19;153498;-58
2022/12/27 00:37:17;;;;;;;;;;;;;;;16.18;47.19;102065.16;7248750;19;154092;-58
2022/12/27 00:39:43;;;;;;;;;;;;;;;16.16;46.72;102068.22;7253278;19;153009;-58
2022/12/27 00:42:10;;;;;;;;;;;;;;;16.16;47.17;102071.00;7254398;19;154094;-58
2022/12/27 00:44:37;;;;;;;;;;;;;;;16.15;46.95;102065.66;7252865;19;153278;-58
2022/12/27 00:47:03;;;;;;;;;;;;;;;16.15;47.25;102072.09;7252443;19;153718;-58
2022/12/27 00:49:30;;;;;;;;;;;;;;;16.14;47.21;102070.38;7252682;19;153439;-58
2022/12/27 00:51:57;;;;;;;;;;;;;;;16.13;46.86;102065.06;7256348;19;153862;-58
2022/12/27 00:54:23;;;;;;;;;;;;;;;16.12;47.06;102061.44;7253166;19;152862;-58
2022/12/27 00:56:50;;;;;;;;;;;;;;;16.11;47.11;102059.75;7251314;19;155761;-58
2022/12/27 00:59:17;;;;;;;;;;;;;;;16.10;47.30;102058.06;7250749;19;152032;-58
2022/12/27 01:01:43;;;;;;;;;;;;;;;16.10;47.28;102052.47;7251340;19;153866;-58
2022/12/27 01:04:14;;;;;;;;;;;;;;;16.10;47.25;102062.78;7251400;19;153317;-58
2022/12/27 01:06:41;;;;;;;;;;;;;;;16.09;47.30;102061.09;7250459;19;152644;-58
2022/12/27 01:09:07;;;;;;;;;;;;;;;16.07;47.13;102058.56;7249198;19;154621;-57
2022/12/27 01:11:34;;;;;;;;;;;;;;;16.06;46.96;102056.88;7250444;19;154680;-57
2022/12/27 01:14:02;;;;;;;;;;;;;;;16.05;47.14;102055.16;7257654;19;154172;-57
2022/12/27 01:16:30;;;;;;;;;;;;;;;16.04;47.21;102056.25;7249325;19;156472;-57
2022/12/27 01:18:57;;;;;;;;;;;;;;;16.04;46.85;102059.06;7252080;19;153171;-58
2022/12/27 01:21:24;;;;;;;;;;;;;;;16.03;47.03;102060.16;7249212;19;153834;-57
2022/12/27 01:23:51;;;;;;;;;;;;;;;16.01;46.90;102059.56;7249309;19;153767;-58
2022/12/27 01:26:19;;;;;;;;;;;;;;;16.01;47.27;102063.19;7250472;19;151912;-57
2022/12/27 01:28:46;;;;;;;;;;;;;;;16.00;47.05;102052.28;7250756;19;152822;-58
2022/12/27 01:31:15;;;;;;;;;;;;;;;15.99;47.32;102057.00;7249473;19;154884;-58
2022/12/27 01:33:42;;;;;;;;;;;;;;;15.99;47.37;102062.59;7251806;19;154370;-58
2022/12/27 01:36:10;;;;;;;;;;;;;;;15.98;47.03;102062.88;7252674;19;154242;-58
2022/12/27 01:38:37;;;;;;;;;;;;;;;15.96;47.27;102065.03;7250063;19;154906;-58
2022/12/27 01:42:50;;;;;;;;;;;;;;;15.95;47.20;102071.69;7251441;19;153008;-57
2022/12/27 01:43:50;;;;;;;;;;;;;;;15.94;47.16;102070.84;7248354;19;155741;-57
2022/12/27 01:46:17;;;;;;;;;;;;;;;15.93;47.28;102071.97;7252014;19;152883;-57
2022/12/27 01:48:44;;;;;;;;;;;;;;;15.93;47.44;102079.47;7249020;19;154249;-57
2022/12/27 01:51:11;;;;;;;;;;;;;;;15.91;47.06;102079.72;7243395;19;153673;-57
2022/12/27 01:53:41;;;;;;;;;;;;;;;15.91;47.52;102082.50;7248625;19;153396;-57
2022/12/27 01:56:16;;;;;;;;;;;;;;;15.89;47.25;102086.66;7258251;19;153489;-57
2022/12/27 01:58:50;;;;;;;;;;;;;;;15.88;47.08;102079.38;7250056;19;154012;-57
2022/12/27 02:01:25;;;;;;;;;;;;;;;15.87;47.60;102086.91;7249788;19;153700;-57
2022/12/27 02:04:00;;;;;;;;;;;;;;;15.85;47.42;102083.50;7246973;19;153300;-57
2022/12/27 02:06:28;;;;;;;;;;;;;;;15.85;47.60;102089.06;7246185;19;153275;-58
2022/12/27 02:09:08;;;;;;;;;;;;;;;15.84;47.28;102098.56;7248632;19;153890;-58
2022/12/27 02:11:51;;;;;;;;;;;;;;;15.83;47.11;102099.63;7238667;19;154633;-58
2022/12/27 02:14:20;;;;;;;;;;;;;;;15.82;47.18;102102.66;7249236;19;153484;-58
2022/12/27 02:16:53;;;;;;;;;;;;;;;15.82;47.59;102109.09;7250077;19;153510;-58
2022/12/27 02:19:28;;;;;;;;;;;;;;;15.82;47.31;102111.03;7255502;19;154532;-58
2022/12/27 02:22:06;;;;;;;;;;;;;;;15.80;47.43;102114.06;7245713;19;153681;-58
2022/12/27 02:24:33;;;;;;;;;;;;;;;15.80;47.61;102113.22;7248767;19;154809;-58
2022/12/27 02:27:05;;;;;;;;;;;;;;;15.78;47.33;102110.69;7247199;19;154608;-58
2022/12/27 02:29:50;;;;;;;;;;;;;;;15.78;47.55;102115.41;7248698;19;154048;-58
2022/12/27 02:32:36;;;;;;;;;;;;;;;15.76;47.58;102112.84;7249138;19;153832;-57
2022/12/27 02:35:22;;;;;;;;;;;;;;;15.74;47.51;102109.50;7248655;19;153474;-58
2022/12/27 02:38:09;;;;;;;;;;;;;;;15.74;47.50;102106.69;7247357;19;153818;-58
2022/12/27 02:54:34;;;;;;;;;;;;;;;15.69;47.90;102109.38;7246848;19;152527;-57
2022/12/27 02:57:07;;;;;;;;;;;;;;;15.67;47.71;102107.94;7254584;19;153089;-57
2022/12/27 03:03:20;;;;;;;;;;;;;;;15.64;47.83;102108.41;7254923;19;154172;-58
2022/12/27 03:09:09;;;;;;;;;;;;;;;15.63;47.98;102113.16;7259664;19;153013;-57
2022/12/27 03:17:36;;;;;;;;;;;;;;;15.60;48.01;102096.09;7249912;19;154456;-57
2022/12/27 03:25:47;;;;;;;;;;;;;;;15.57;47.70;102086.31;7253811;19;153715;-56
2022/12/27 03:34:03;;;;;;;;;;;;;;;15.56;47.80;102087.38;7260897;19;154269;-56
2022/12/27 03:39:23;;;;;;;;;;;;;;;15.55;47.70;102102.41;7252015;19;153960;-57
2022/12/27 03:44:38;;;;;;;;;;;;;;;15.53;47.99;102101.81;7256297;19;153603;-56
2022/12/27 03:47:19;;;;;;;;;;;;;;;15.52;48.05;102100.97;7253610;19;154230;-56
2022/12/27 03:49:49;;;;;;;;;;;;;;;15.51;47.85;102109.56;7253969;19;152327;-57
2022/12/27 03:52:24;;;;;;;;;;;;;;;15.50;48.13;102111.50;7249497;19;154870;-56
2022/12/27 03:54:51;;;;;;;;;;;;;;;15.48;48.08;102105.31;7250434;19;154358;-56
2022/12/27 03:57:22;;;;;;;;;;;;;;;15.48;47.90;102099.72;7262526;19;152804;-56
2022/12/27 03:59:49;;;;;;;;;;;;;;;15.47;47.98;102100.81;7253487;19;153704;-56
2022/12/27 04:02:16;;;;;;;;;;;;;;;15.47;48.23;102097.19;7252843;19;153199;-56
2022/12/27 04:04:43;;;;;;;;;;;;;;;15.47;47.86;102105.53;7252675;19;154615;-56
2022/12/27 04:07:13;;;;;;;;;;;;;;;15.45;48.26;102108.56;7247135;19;154243;-57
2022/12/27 04:37:09;;;;;;;;;;;;;;;15.85;48.67;102102.19;7247675;19;154614;-56
2022/12/27 04:39:35;;;;;;;;;;;;;;;15.88;48.67;102101.69;7254306;19;153527;-57
2022/12/27 04:56:05;;;;;;;;;;;;;;;16.11;48.26;102076.47;7251529;19;153215;-57
2022/12/27 04:58:32;;;;;;;;;;;;;;;16.15;47.91;102074.88;7250535;19;155335;-56
2022/12/27 05:03:47;;;;;;;;;;;;;;;16.22;47.57;102083.91;7252402;19;153762;-57
2022/12/27 05:06:14;;;;;;;;;;;;;;;16.25;47.62;102082.59;7256897;19;153941;-56
2022/12/27 05:14:12;;;;;;;;;;;;;;;16.31;47.37;102079.59;7251343;19;154151;-57
2022/12/27 05:16:40;;;;;;;;;;;;;;;16.33;47.54;102083.00;7252255;19;154568;-57
2022/12/27 05:19:08;;;;;;;;;;;;;;;16.35;47.31;102078.00;7248279;19;155208;-57
2022/12/27 05:21:35;;;;;;;;;;;;;;;16.36;46.98;102070.50;7247689;19;153939;-57
2022/12/27 05:26:48;;;;;;;;;;;;;;;16.37;46.98;102063.81;7248309;19;152935;-57
2022/12/27 05:29:14;;;;;;;;;;;;;;;16.36;47.21;102062.97;7259103;19;152682;-57
2022/12/27 05:31:41;;;;;;;;;;;;;;;16.37;47.01;102061.03;7248380;19;153385;-57
2022/12/27 05:34:08;;;;;;;;;;;;;;;16.38;46.84;102062.72;7251893;19;153542;-57
2022/12/27 05:36:35;;;;;;;;;;;;;;;16.37;47.13;102070.25;7249168;19;153568;-57
2022/12/27 05:39:01;;;;;;;;;;;;;;;16.37;47.06;102069.41;7248730;19;154730;-57
2022/12/27 05:41:28;;;;;;;;;;;;;;;16.37;47.17;102081.41;7250105;19;152940;-57
2022/12/27 05:43:56;;;;;;;;;;;;;;;16.38;47.33;102073.88;7251632;19;155543;-57
2022/12/27 05:46:28;;;;;;;;;;;;;;;16.38;46.86;102071.94;7248384;19;155899;-57
2022/12/27 05:48:55;;;;;;;;;;;;;;;16.39;46.94;102084.78;7251242;19;153374;-57
2022/12/27 05:51:22;;;;;;;;;;;;;;;16.38;46.99;102074.72;7253245;19;153344;-57
2022/12/27 05:53:48;;;;;;;;;;;;;;;16.39;46.96;102073.63;7250477;19;153467;-57
2022/12/27 05:56:16;;;;;;;;;;;;;;;16.40;46.88;102074.47;7249714;19;154420;-57
2022/12/27 05:58:42;;;;;;;;;;;;;;;16.39;47.15;102079.22;7250731;19;153426;-57
2022/12/27 06:01:10;;;;;;;;;;;;;;;16.37;46.93;102075.81;7251497;19;152862;-57
2022/12/27 06:03:37;;;;;;;;;;;;;;;16.37;47.13;102075.81;7251649;19;154193;-56
2022/12/27 06:06:04;;;;;;;;;;;;;;;16.39;47.30;102075.59;7244291;19;154056;-57
2022/12/27 06:08:33;;;;;;;;;;;;;;;16.38;47.40;102069.16;7249990;19;155445;-56
2022/12/27 06:11:08;;;;;;;;;;;;;;;16.38;47.22;102071.09;7248917;19;153232;-57
2022/12/27 06:13:35;;;;;;;;;;;;;;;16.37;47.10;102067.47;7257007;19;153343;-57
2022/12/27 06:16:03;;;;;;;;;;;;;;;16.36;47.02;102057.41;7249251;19;153979;-57
2022/12/27 06:18:31;;;;;;;;;;;;;;;16.36;47.05;102046.25;7249416;19;153495;-56
2022/12/27 06:21:05;;;;;;;;;;;;;;;16.36;47.26;102046.25;7248176;19;154416;-57
2022/12/27 06:23:32;;;;;;;;;;;;;;;16.36;47.14;102045.38;7246619;19;153822;-57
2022/12/27 06:26:03;;;;;;;;;;;;;;;16.34;47.15;102037.28;7247507;19;154623;-57
2022/12/27 06:28:29;;;;;;;;;;;;;;;16.33;47.11;102035.59;7249426;19;153590;-57
2022/12/27 06:30:57;;;;;;;;;;;;;;;16.33;47.11;102037.53;7248494;19;154610;-57
2022/12/27 06:33:24;;;;;;;;;;;;;;;16.32;47.41;102030.25;7264611;19;154939;-57
2022/12/27 06:35:50;;;;;;;;;;;;;;;16.31;47.41;102023.84;7254324;19;153873;-57
2022/12/27 06:38:17;;;;;;;;;;;;;;;16.31;47.07;102023.84;7253495;19;155363;-56
2022/12/27 06:40:44;;;;;;;;;;;;;;;16.29;47.09;102017.69;7256294;19;153703;-57
2022/12/27 06:43:10;;;;;;;;;;;;;;;16.30;47.33;102012.97;7255983;19;154052;-57
2022/12/27 06:45:38;;;;;;;;;;;;;;;16.28;46.95;102010.41;7254178;19;152226;-57
2022/12/27 06:48:04;;;;;;;;;;;;;;;16.28;47.19;102013.19;7255119;19;153457;-57
2022/12/27 06:50:33;;;;;;;;;;;;;;;16.27;47.12;102019.03;7255950;19;153101;-56
2022/12/27 06:52:59;;;;;;;;;;;;;;;16.25;47.41;102010.94;7248823;19;155557;-57
2022/12/27 06:55:26;;;;;;;;;;;;;;;16.24;47.08;102011.19;7263209;19;154543;-56
2022/12/27 06:57:53;;;;;;;;;;;;;;;16.24;47.03;102005.59;7253424;19;152892;-56
2022/12/27 07:00:19;;;;;;;;;;;;;;;16.23;47.18;102001.97;7254654;19;153750;-56
2022/12/27 07:02:46;;;;;;;;;;;;;;;16.22;47.36;102000.25;7255814;19;153647;-56
2022/12/27 07:05:13;;;;;;;;;;;;;;;16.22;47.36;102002.22;7252890;19;154424;-57
2022/12/27 07:07:40;;;;;;;;;;;;;;;16.25;47.39;101998.94;7255362;19;154240;-57
2022/12/27 07:10:07;;;;;;;;;;;;;;;16.25;47.22;101993.34;7251415;19;153644;-57
2022/12/27 07:12:33;;;;;;;;;;;;;;;16.26;47.27;101993.06;7253656;19;153920;-57
2022/12/27 07:15:03;;;;;;;;;;;;;;;16.29;47.47;101989.81;7254947;19;153131;-56
2022/12/27 07:17:30;;;;;;;;;;;;;;;16.33;47.48;101985.41;7260989;19;154090;-57
2022/12/27 07:19:57;;;;;;;;;;;;;;;16.38;47.46;101987.44;7253803;19;152627;-57
2022/12/27 07:22:23;;;;;;;;;;;;;;;16.42;47.30;101977.44;7254998;19;154634;-57
2022/12/27 07:24:50;;;;;;;;;;;;;;;16.47;47.82;101997.06;7250578;19;152907;-57
2022/12/27 07:27:17;;;;;;;;;;;;;;;16.51;47.75;101989.00;7255320;19;153582;-57
2022/12/27 07:29:43;;;;;;;;;;;;;;;16.54;47.48;101980.13;7252302;19;152908;-57
2022/12/27 07:32:11;;;;;;;;;;;;;;;16.58;47.81;101986.94;7252885;19;153394;-56
2022/12/27 07:34:38;;;;;;;;;;;;;;;16.61;47.68;101989.19;7255752;19;154909;-57
2022/12/27 07:37:05;;;;;;;;;;;;;;;16.65;47.67;101990.38;7250827;19;152710;-57
2022/12/27 07:39:31;;;;;;;;;;;;;;;16.68;47.53;101993.47;7263087;19;154457;-57
2022/12/27 07:41:58;;;;;;;;;;;;;;;16.71;47.49;101986.56;7256366;19;156325;-57
2022/12/27 07:44:33;;;;;;;;;;;;;;;16.75;47.73;101993.31;7255252;19;154036;-57
2022/12/27 07:46:59;;;;;;;;;;;;;;;16.77;47.36;102000.31;7256045;19;154192;-57
2022/12/27 07:49:27;;;;;;;;;;;;;;;16.79;47.36;102000.06;7254922;19;153528;-57
2022/12/27 07:51:53;;;;;;;;;;;;;;;16.83;47.14;102004.03;7247580;19;154640;-57
2022/12/27 07:54:20;;;;;;;;;;;;;;;16.85;47.41;102007.41;7253998;19;154794;-57
2022/12/27 07:56:47;;;;;;;;;;;;;;;16.87;47.00;102008.00;7251892;19;153023;-58
2022/12/27 07:59:13;;;;;;;;;;;;;;;16.89;47.05;102016.97;7254100;19;157046;-58
2022/12/27 08:04:25;;;;;;;;;;;;;;;16.94;46.95;102018.97;7253021;19;153502;-58
2022/12/27 08:06:53;;;;;;;;;;;;;;;16.96;46.80;102017.59;7248386;19;153962;-58
2022/12/27 08:09:24;;;;;;;;;;;;;;;16.98;47.03;102011.78;7251433;19;155438;-58
2022/12/27 08:11:51;;;;;;;;;;;;;;;16.99;46.87;102010.69;7251444;19;153367;-59
2022/12/27 08:14:17;;;;;;;;;;;;;;;16.99;46.58;102011.50;7254736;19;152133;-58
2022/12/27 08:16:44;;;;;;;;;;;;;;;17.01;46.65;102014.03;7253197;19;154958;-58
2022/12/27 08:19:11;;;;;;;;;;;;;;;17.01;46.77;102006.50;7253059;19;154086;-58
2022/12/27 08:21:38;;;;;;;;;;;;;;;17.03;46.73;102007.13;7257761;19;152228;-58
2022/12/27 08:24:04;;;;;;;;;;;;;;;17.03;46.73;102003.47;7252083;19;154633;-58
2022/12/27 08:26:31;;;;;;;;;;;;;;;17.04;46.69;102005.13;7252664;19;153524;-58
2022/12/27 08:28:58;;;;;;;;;;;;;;;17.02;46.78;102012.94;7252972;19;153993;-58
2022/12/27 08:31:24;;;;;;;;;;;;;;;17.02;46.69;102004.56;7252479;19;154389;-58
2022/12/27 08:33:51;;;;;;;;;;;;;;;17.01;46.82;102003.72;7250341;19;156501;-58
2022/12/27 08:36:23;;;;;;;;;;;;;;;17.00;46.80;101999.22;7250183;19;155048;-58
2022/12/27 08:39:10;;;;;;;;;;;;;;;17.00;46.48;102004.81;7251362;19;153877;-58
2022/12/27 08:41:38;;;;;;;;;;;;;;;16.99;46.74;102005.91;7252275;19;153516;-58
2022/12/27 08:44:05;;;;;;;;;;;;;;;16.99;46.68;102003.13;7260034;19;153675;-58
2022/12/27 08:46:31;;;;;;;;;;;;;;;16.99;46.75;102008.69;7249621;19;153292;-58
2022/12/27 08:48:58;;;;;;;;;;;;;;;17.00;46.50;102012.34;7253113;19;154318;-58
2022/12/27 08:51:25;;;;;;;;;;;;;;;16.99;46.76;102013.47;7247656;19;154456;-58
2022/12/27 08:54:05;;;;;;;;;;;;;;;16.98;46.63;102007.03;7250058;19;152543;-58
2022/12/27 08:56:32;;;;;;;;;;;;;;;16.98;46.95;102006.19;7252425;19;153449;-58
2022/12/27 08:58:59;;;;;;;;;;;;;;;16.98;47.00;102003.41;7252497;19;154908;-58
2022/12/27 09:01:25;;;;;;;;;;;;;;;16.97;46.58;101998.91;7252443;19;153035;-58
2022/12/27 09:03:52;;;;;;;;;;;;;;;16.96;46.97;101995.28;7253096;19;153975;-58
2022/12/27 09:06:20;;;;;;;;;;;;;;;16.96;47.00;101989.69;7255583;19;154292;-58
2022/12/27 09:08:48;;;;;;;;;;;;;;;16.95;47.07;101993.56;7249818;19;153910;-57
2022/12/27 09:11:16;;;;;;;;;;;;;;;16.94;46.63;102000.28;7249705;19;153973;-58
2022/12/27 09:13:43;;;;;;;;;;;;;;;16.92;46.69;101994.09;7251291;19;152974;-58
2022/12/27 09:16:14;;;;;;;;;;;;;;;16.93;46.94;102000.53;7251609;19;153492;-58
2022/12/27 09:18:41;;;;;;;;;;;;;;;16.91;46.68;102000.78;7251305;19;155109;-58
2022/12/27 09:21:10;;;;;;;;;;;;;;;16.90;47.03;101991.56;7247526;19;154475;-58
2022/12/27 09:23:37;;;;;;;;;;;;;;;16.89;46.90;101997.44;7250572;19;153816;-58
2022/12/27 09:26:15;;;;;;;;;;;;;;;16.88;47.03;101996.56;7249087;19;154610;-58
2022/12/27 09:28:41;;;;;;;;;;;;;;;16.85;46.89;101994.28;7259051;19;153889;-58
2022/12/27 09:31:09;;;;;;;;;;;;;;;16.86;46.82;101983.97;7248086;19;154194;-57
2022/12/27 09:33:36;;;;;;;;;;;;;;;16.85;47.20;101987.88;7250461;19;152919;-58
2022/12/27 09:36:13;;;;;;;;;;;;;;;16.84;47.31;101987.03;7249032;19;154692;-58
2022/12/27 09:38:42;;;;;;;;;;;;;;;16.83;46.91;101996.50;7230768;19;154183;-58
2022/12/27 09:41:18;;;;;;;;;;;;;;;16.83;47.02;101990.06;7240730;19;154167;-58
2022/12/27 09:44:05;;;;;;;;;;;;;;;16.81;46.92;101995.91;7247439;19;155773;-58
2022/12/27 09:46:53;;;;;;;;;;;;;;;16.80;46.86;101991.44;7245709;19;155066;-58
2022/12/27 09:49:32;;;;;;;;;;;;;;;16.80;47.05;101998.97;7247275;19;154669;-58
2022/12/27 09:52:05;;;;;;;;;;;;;;;16.77;47.27;101996.69;7249913;19;154051;-58
2022/12/27 09:54:50;;;;;;;;;;;;;;;16.76;47.35;101993.03;7248264;19;154268;-58
2022/12/27 09:57:20;;;;;;;;;;;;;;;16.76;47.16;101997.81;7247708;19;153314;-58
2022/12/27 09:59:52;;;;;;;;;;;;;;;16.75;47.38;101987.75;7249731;19;154018;-58
2022/12/27 10:02:21;;;;;;;;;;;;;;;16.74;47.04;101986.03;7248356;19;154373;-58
2022/12/27 10:04:50;;;;;;;;;;;;;;;16.73;47.57;101978.75;7250596;19;153848;-58
2022/12/27 10:07:46;;;;;;;;;;;;;;;16.71;47.25;101979.03;7253319;19;157175;-57
2022/12/27 10:10:37;;;;;;;;;;;;;;;16.70;47.61;101988.50;7254371;19;154283;-57
2022/12/27 10:13:25;;;;;;;;;;;;;;;16.68;47.49;101985.13;7253697;19;153539;-57
2022/12/27 10:16:11;;;;;;;;;;;;;;;16.68;47.43;101978.69;7264058;19;154642;-58
2022/12/27 10:18:46;;;;;;;;;;;;;;;16.67;47.47;101968.66;7256393;19;153062;-57
2022/12/27 10:21:21;;;;;;;;;;;;;;;16.66;47.32;101961.38;7254308;19;155096;-58
2022/12/27 10:24:01;;;;;;;;;;;;;;;16.66;47.20;101967.81;7256661;19;153322;-58
2022/12/27 10:26:28;;;;;;;;;;;;;;;16.65;47.54;101957.75;7256658;19;153532;-58
2022/12/27 10:28:58;;;;;;;;;;;;;;;16.65;47.43;101962.47;7254834;19;155277;-58
2022/12/27 10:31:25;;;;;;;;;;;;;;;16.65;47.58;101954.09;7254821;19;153465;-58
2022/12/27 10:33:52;;;;;;;;;;;;;;;16.64;47.50;101949.63;7254017;19;155747;-57
2022/12/27 10:36:22;;;;;;;;;;;;;;;16.63;47.45;101942.34;7260920;19;154204;-58
2022/12/27 10:38:49;;;;;;;;;;;;;;;16.62;47.67;101926.72;7256656;19;153796;-58
2022/12/27 10:41:25;;;;;;;;;;;;;;;16.62;47.62;101921.16;7254857;19;153641;-58
2022/12/27 10:43:52;;;;;;;;;;;;;;;16.61;47.71;101923.09;7252443;19;152399;-58
2022/12/27 10:46:29;;;;;;;;;;;;;;;16.59;47.61;101928.06;7256740;19;153888;-58
2022/12/27 10:48:59;;;;;;;;;;;;;;;16.58;47.77;101917.19;7255411;19;153834;-58
2022/12/27 10:51:45;;;;;;;;;;;;;;;16.57;47.55;101927.47;7252453;19;153483;-57
2022/12/27 10:54:13;;;;;;;;;;;;;;;16.57;47.61;101924.69;7254980;19;154260;-58
2022/12/27 10:56:42;;;;;;;;;;;;;;;16.55;47.71;101912.91;7251823;19;154678;-58
2022/12/27 10:59:17;;;;;;;;;;;;;;;16.55;47.62;101907.34;7264944;19;153419;-58
2022/12/27 11:01:45;;;;;;;;;;;;;;;16.53;47.98;101904.00;7253643;19;154264;-58
2022/12/27 11:04:15;;;;;;;;;;;;;;;16.52;47.72;101902.28;7257827;19;153914;-58
2022/12/27 11:06:58;;;;;;;;;;;;;;;16.51;47.79;101897.81;7251831;19;154478;-58
2022/12/27 11:09:30;;;;;;;;;;;;;;;16.50;47.74;101884.09;7250132;19;154358;-58
2022/12/27 11:12:15;;;;;;;;;;;;;;;16.48;47.75;101887.19;7255149;19;154986;-58
2022/12/27 11:14:54;;;;;;;;;;;;;;;16.49;47.75;101888.03;7254066;19;152775;-58
2022/12/27 11:17:41;;;;;;;;;;;;;;;16.46;48.09;101881.00;7254452;19;153728;-58
2022/12/27 11:20:18;;;;;;;;;;;;;;;16.44;47.88;101869.28;7251714;19;153743;-58
2022/12/27 11:23:05;;;;;;;;;;;;;;;16.43;48.01;101862.84;7257261;19;153917;-57
2022/12/27 11:25:32;;;;;;;;;;;;;;;16.42;48.19;101866.72;7253009;19;154169;-58
2022/12/27 11:27:59;;;;;;;;;;;;;;;16.42;48.31;101865.88;7254377;19;153166;-58
2022/12/27 11:30:28;;;;;;;;;;;;;;;16.40;48.28;101848.56;7253420;19;154680;-58
2022/12/27 11:32:56;;;;;;;;;;;;;;;16.38;48.17;101854.41;7253819;19;154417;-58
2022/12/27 11:35:23;;;;;;;;;;;;;;;16.39;48.24;101850.53;7252494;19;153251;-58
2022/12/27 11:37:50;;;;;;;;;;;;;;;16.39;48.54;101853.31;7249732;19;153124;-58
2022/12/27 11:40:36;;;;;;;;;;;;;;;16.38;48.50;101839.63;7252608;19;153042;-58
2022/12/27 11:43:08;;;;;;;;;;;;;;;16.36;48.40;101845.44;7254309;19;152768;-58
2022/12/27 11:45:41;;;;;;;;;;;;;;;16.36;48.35;101836.22;7261012;19;155356;-58
2022/12/27 11:48:10;;;;;;;;;;;;;;;16.35;48.44;101835.38;7254048;19;153929;-58
2022/12/27 11:50:46;;;;;;;;;;;;;;;16.35;48.53;101834.56;7253139;19;153257;-57
2022/12/27 11:53:19;;;;;;;;;;;;;;;16.33;48.59;101822.81;7252962;19;154149;-58
2022/12/27 11:55:46;;;;;;;;;;;;;;;16.34;48.57;101824.50;7255989;19;152693;-58
2022/12/27 11:58:12;;;;;;;;;;;;;;;16.34;48.31;101819.78;7251832;19;154378;-58
2022/12/27 12:00:48;;;;;;;;;;;;;;;16.33;48.84;101815.28;7253929;19;152365;-58
2022/12/27 12:03:33;;;;;;;;;;;;;;;16.34;48.40;101824.50;7250943;19;155351;-58
2022/12/27 12:06:14;;;;;;;;;;;;;;;16.32;48.81;101808.03;7250947;19;153969;-58
2022/12/27 12:08:49;;;;;;;;;;;;;;;16.31;48.38;101806.34;7260213;19;152777;-58
2022/12/27 12:11:18;;;;;;;;;;;;;;;16.30;48.72;101804.66;7251442;19;154745;-58
2022/12/27 12:13:54;;;;;;;;;;;;;;;16.30;48.81;101798.25;7251636;19;153151;-58
2022/12/27 12:16:29;;;;;;;;;;;;;;;16.28;48.61;101798.50;7252516;19;155232;-58
2022/12/27 12:18:58;;;;;;;;;;;;;;;16.27;48.99;101782.84;7251387;19;154822;-58
2022/12/27 12:21:54;;;;;;;;;;;;;;;16.27;48.96;101777.28;7250729;19;152604;-58
2022/12/27 12:24:42;;;;;;;;;;;;;;;16.27;48.90;101768.06;7250315;19;153816;-57
2022/12/27 12:27:08;;;;;;;;;;;;;;;16.26;48.72;101758.06;7252090;19;153410;-58
2022/12/27 12:29:53;;;;;;;;;;;;;;;16.24;48.76;101757.44;7251639;19;154489;-58
2022/12/27 12:32:20;;;;;;;;;;;;;;;16.24;48.88;101751.88;7261155;19;153354;-58
2022/12/27 12:35:03;;;;;;;;;;;;;;;16.24;49.04;101735.16;7252709;19;153901;-58
2022/12/27 12:37:50;;;;;;;;;;;;;;;16.22;49.11;101728.97;7253995;19;153288;-58
2022/12/27 12:40:38;;;;;;;;;;;;;;;16.21;48.95;101728.16;7247838;19;155577;-58
2022/12/27 12:43:23;;;;;;;;;;;;;;;16.21;48.92;101724.53;7253819;19;152918;-58
2022/12/27 12:45:56;;;;;;;;;;;;;;;16.20;49.04;101723.69;7253334;19;154440;-58
2022/12/27 12:48:29;;;;;;;;;;;;;;;16.18;48.88;101709.16;7251080;19;154991;-58
2022/12/27 12:51:04;;;;;;;;;;;;;;;16.19;48.88;101707.19;7249708;19;152836;-58
2022/12/27 12:53:37;;;;;;;;;;;;;;;16.17;49.05;101701.06;7256898;19;154496;-58
2022/12/27 12:56:22;;;;;;;;;;;;;;;16.18;49.13;101702.72;7251159;19;153480;-57
2022/12/27 12:59:12;;;;;;;;;;;;;;;16.16;49.02;101693.78;7252392;19;154064;-57
2022/12/27 13:01:58;;;;;;;;;;;;;;;16.16;48.97;101693.78;7249840;19;154091;-57
2022/12/27 13:04:54;;;;;;;;;;;;;;;16.14;49.02;101677.31;7249662;19;153456;-57
2022/12/27 13:07:39;;;;;;;;;;;;;;;16.13;49.19;101667.25;7246374;19;155638;-57
2022/12/27 13:10:08;;;;;;;;;;;;;;;16.13;49.33;101660.84;7247993;19;156498;-57
2022/12/27 13:12:49;;;;;;;;;;;;;;;16.12;49.06;101657.25;7250984;19;153403;-57
2022/12/27 13:15:27;;;;;;;;;;;;;;;16.11;49.28;101649.97;7252193;19;154068;-57
2022/12/27 13:18:00;;;;;;;;;;;;;;;16.10;49.00;101639.94;7261449;19;153587;-57
2022/12/27 13:20:46;;;;;;;;;;;;;;;16.09;49.24;101638.22;7252711;19;154560;-57
2022/12/27 13:23:31;;;;;;;;;;;;;;;16.09;49.22;101638.22;7247785;19;154519;-57
2022/12/27 13:26:04;;;;;;;;;;;;;;;16.06;49.42;101624.84;7251720;19;153507;-57
2022/12/27 13:28:41;;;;;;;;;;;;;;;16.06;49.61;101621.19;7249852;19;153722;-57
2022/12/27 13:31:32;;;;;;;;;;;;;;;16.05;49.56;101622.28;7251637;19;154504;-57
2022/12/27 13:34:25;;;;;;;;;;;;;;;16.04;49.39;101610.31;7247980;19;154707;-57
2022/12/27 13:37:04;;;;;;;;;;;;;;;16.03;49.55;101606.66;7246806;19;156939;-57
2022/12/27 13:39:42;;;;;;;;;;;;;;;16.03;49.55;101600.28;7250328;19;153382;-58
2022/12/27 13:42:18;;;;;;;;;;;;;;;16.02;49.43;101598.59;7257298;19;153945;-57
2022/12/27 13:45:06;;;;;;;;;;;;;;;16.02;49.18;101587.44;7250898;19;154174;-57
2022/12/27 13:47:47;;;;;;;;;;;;;;;16.00;49.29;101589.63;7252619;19;155238;-57
2022/12/27 13:50:39;;;;;;;;;;;;;;;15.99;49.62;101580.44;7247884;19;154119;-57
2022/12/27 13:53:28;;;;;;;;;;;;;;;15.98;49.19;101584.34;7245844;19;154301;-57
2022/12/27 13:56:03;;;;;;;;;;;;;;;15.97;49.38;101592.97;7248078;19;154076;-57
2022/12/27 13:59:12;;;;;;;;;;;;;;;15.95;49.29;101587.63;7249855;19;154603;-57
2022/12/27 14:01:59;;;;;;;;;;;;;;;15.95;49.79;101581.22;7249149;19;154025;-56
2022/12/27 14:04:32;;;;;;;;;;;;;;;15.93;49.79;101575.94;7251242;19;152888;-56
2022/12/27 14:07:14;;;;;;;;;;;;;;;15.93;49.71;101578.72;7254177;19;154654;-57
2022/12/27 14:09:41;;;;;;;;;;;;;;;15.93;49.75;101575.94;7248327;19;154127;-57
2022/12/27 14:12:22;;;;;;;;;;;;;;;15.92;49.73;101563.09;7248879;19;153244;-57
2022/12/27 14:14:50;;;;;;;;;;;;;;;15.92;49.62;101565.03;7248643;19;153637;-57
2022/12/27 14:17:29;;;;;;;;;;;;;;;15.92;49.64;101553.88;7251863;19;153655;-57
2022/12/27 14:20:14;;;;;;;;;;;;;;;15.91;49.64;101552.19;7250139;19;153954;-57
2022/12/27 14:22:40;;;;;;;;;;;;;;;15.90;49.59;101545.78;7253603;19;153548;-56
2022/12/27 14:25:24;;;;;;;;;;;;;;;15.90;49.89;101550.50;7250273;19;153080;-57
2022/12/27 14:28:08;;;;;;;;;;;;;;;15.89;49.55;101543.28;7250932;19;153303;-57
2022/12/27 14:30:54;;;;;;;;;;;;;;;15.88;49.77;101553.59;7255434;19;154013;-57